sensor_id;sensor_type;location;lat;lon;timestamp;pressure;altitude;pressure_sealevel;temperature;humidity
48824;BME280;34640;53.590;10.054;2023-11-21T00:00:23;100617.78;;;9.38;100.00
48824;BME280;34640;53.590;10.054;2023-11-21T00:02:56;100610.41;;;9.31;100.00
48824;BME280;34640;53.590;10.054;2023-11-21T00:05:29;100619.09;;;9.31;100.00
48824;BME280;34640;53.590;10.054;2023-11-21T00:08:04;100612.72;;;9.26;100.00
48824;BME280;34640;53.590;10.054;2023-11-21T00:10:37;100621.94;;;9.08;100.00
48824;BME280;34640;53.590;10.054;2023-11-21T00:13:11;100630.38;;;9.04;100.00
48824;BME280;34640;53.590;10.054;2023-11-21T00:15:44;100636.88;;;8.97;100.00
48824;BME280;34640;53.590;10.054;2023-11-21T00:18:16;100646.56;;;9.00;100.00
48824;BME280;34640;53.590;10.054;2023-11-21T00:20:49;100639.75;;;9.02;100.00
48824;BME280;34640;53.590;10.054;2023-11-21T00:23:24;100645.38;;;8.95;100.00
48824;BME280;34640;53.590;10.054;2023-11-21T00:25:56;100648.16;;;8.84;100.00
48824;BME280;34640;53.590;10.054;2023-11-21T00:28:29;100644.78;;;8.72;100.00
48824;BME280;34640;53.590;10.054;2023-11-21T00:31:02;100653.19;;;8.68;100.00
48824;BME280;34640;53.590;10.054;2023-11-21T00:33:36;100655.66;;;8.67;100.00
48824;BME280;34640;53.590;10.054;2023-11-21T00:36:09;100659.66;;;8.62;100.00
48824;BME280;34640;53.590;10.054;2023-11-21T00:38:43;100667.44;;;8.62;100.00
48824;BME280;34640;53.590;10.054;2023-11-21T00:41:16;100668.53;;;8.52;100.00
48824;BME280;34640;53.590;10.054;2023-11-21T00:43:49;100670.13;;;8.50;100.00
48824;BME280;34640;53.590;10.054;2023-11-21T00:46:22;100675.00;;;8.45;100.00
48824;BME280;34640;53.590;10.054;2023-11-21T00:48:55;100673.91;;;8.42;100.00
48824;BME280;34640;53.590;10.054;2023-11-21T00:51:28;100681.19;;;8.34;100.00
48824;BME280;34640;53.590;10.054;2023-11-21T00:54:04;100683.19;;;8.38;100.00
48824;BME280;34640;53.590;10.054;2023-11-21T00:56:38;100688.38;;;8.38;100.00
48824;BME280;34640;53.590;10.054;2023-11-21T00:59:11;100692.97;;;8.42;100.00
48824;BME280;34640;53.590;10.054;2023-11-21T01:01:44;100691.66;;;8.36;100.00
48824;BME280;34640;53.590;10.054;2023-11-21T01:04:17;100700.91;;;8.32;100.00
48824;BME280;34640;53.590;10.054;2023-11-21T01:06:50;100711.41;;;8.34;100.00
48824;BME280;34640;53.590;10.054;2023-11-21T01:09:24;100716.31;;;8.17;100.00
48824;BME280;34640;53.590;10.054;2023-11-21T01:11:59;100726.09;;;8.21;100.00
48824;BME280;34640;53.590;10.054;2023-11-21T01:14:32;100726.19;;;8.10;100.00
48824;BME280;34640;53.590;10.054;2023-11-21T01:17:05;100720.00;;;8.08;100.00
48824;BME280;34640;53.590;10.054;2023-11-21T01:19:38;100728.22;;;8.02;100.00
48824;BME280;34640;53.590;10.054;2023-11-21T01:22:11;100730.72;;;8.01;100.00
48824;BME280;34640;53.590;10.054;2023-11-21T01:24:46;100738.38;;;7.99;100.00
48824;BME280;34640;53.590;10.054;2023-11-21T01:27:19;100747.97;;;8.00;100.00
48824;BME280;34640;53.590;10.054;2023-11-21T01:29:52;100747.66;;;7.95;100.00
48824;BME280;34640;53.590;10.054;2023-11-21T01:32:25;100746.66;;;7.93;100.00
48824;BME280;34640;53.590;10.054;2023-11-21T01:34:59;100743.97;;;7.80;100.00
48824;BME280;34640;53.590;10.054;2023-11-21T01:37:32;100749.53;;;7.85;100.00
48824;BME280;34640;53.590;10.054;2023-11-21T01:40:08;100753.44;;;7.80;100.00
48824;BME280;34640;53.590;10.054;2023-11-21T01:42:42;100761.00;;;7.77;100.00
48824;BME280;34640;53.590;10.054;2023-11-21T01:45:15;100770.47;;;7.76;100.00
48824;BME280;34640;53.590;10.054;2023-11-21T01:47:48;100765.66;;;7.81;100.00
48824;BME280;34640;53.590;10.054;2023-11-21T01:50:21;100757.88;;;7.81;100.00
48824;BME280;34640;53.590;10.054;2023-11-21T01:52:55;100760.00;;;7.75;100.00
48824;BME280;34640;53.590;10.054;2023-11-21T01:55:29;100759.44;;;7.79;100.00
48824;BME280;34640;53.590;10.054;2023-11-21T01:58:02;100770.94;;;7.82;100.00
48824;BME280;34640;53.590;10.054;2023-11-21T02:00:36;100767.69;;;7.73;100.00
48824;BME280;34640;53.590;10.054;2023-11-21T02:03:10;100771.28;;;7.75;100.00
48824;BME280;34640;53.590;10.054;2023-11-21T02:05:43;100769.16;;;7.70;100.00
48824;BME280;34640;53.590;10.054;2023-11-21T02:08:16;100772.88;;;7.73;100.00
48824;BME280;34640;53.590;10.054;2023-11-21T02:10:52;100783.03;;;7.70;100.00
48824;BME280;34640;53.590;10.054;2023-11-21T02:13:25;100784.03;;;7.72;100.00
48824;BME280;34640;53.590;10.054;2023-11-21T02:15:58;100797.25;;;7.63;100.00
48824;BME280;34640;53.590;10.054;2023-11-21T02:18:32;100795.28;;;7.73;100.00
48824;BME280;34640;53.590;10.054;2023-11-21T02:21:06;100793.19;;;7.67;100.00
48824;BME280;34640;53.590;10.054;2023-11-21T02:23:40;100795.56;;;7.64;100.00
48824;BME280;34640;53.590;10.054;2023-11-21T02:26:15;100797.94;;;7.61;100.00
48824;BME280;34640;53.590;10.054;2023-11-21T02:28:48;100801.75;;;7.66;100.00
48824;BME280;34640;53.590;10.054;2023-11-21T02:31:21;100809.19;;;7.61;100.00
48824;BME280;34640;53.590;10.054;2023-11-21T02:33:54;100817.63;;;7.59;100.00
48824;BME280;34640;53.590;10.054;2023-11-21T02:36:27;100819.19;;;7.57;100.00
48824;BME280;34640;53.590;10.054;2023-11-21T02:39:01;100826.44;;;7.49;100.00
48824;BME280;34640;53.590;10.054;2023-11-21T02:41:34;100825.06;;;7.54;100.00
48824;BME280;34640;53.590;10.054;2023-11-21T02:44:07;100824.28;;;7.55;100.00
48824;BME280;34640;53.590;10.054;2023-11-21T02:46:40;100827.22;;;7.48;100.00
48824;BME280;34640;53.590;10.054;2023-11-21T02:49:13;100830.28;;;7.43;100.00
48824;BME280;34640;53.590;10.054;2023-11-21T02:51:45;100831.75;;;7.39;100.00
48824;BME280;34640;53.590;10.054;2023-11-21T02:54:20;100839.06;;;7.45;100.00
48824;BME280;34640;53.590;10.054;2023-11-21T02:56:53;100842.22;;;7.41;100.00
48824;BME280;34640;53.590;10.054;2023-11-21T02:59:26;100838.03;;;7.43;100.00
48824;BME280;34640;53.590;10.054;2023-11-21T03:01:59;100840.84;;;7.46;100.00
48824;BME280;34640;53.590;10.054;2023-11-21T03:04:32;100836.03;;;7.39;100.00
48824;BME280;34640;53.590;10.054;2023-11-21T03:07:06;100838.94;;;7.43;100.00
48824;BME280;34640;53.590;10.054;2023-11-21T03:09:41;100847.63;;;7.44;100.00
48824;BME280;34640;53.590;10.054;2023-11-21T03:12:13;100845.72;;;7.41;100.00
48824;BME280;34640;53.590;10.054;2023-11-21T03:14:47;100842.91;;;7.38;100.00
48824;BME280;34640;53.590;10.054;2023-11-21T03:17:20;100857.06;;;7.31;100.00
48824;BME280;34640;53.590;10.054;2023-11-21T03:19:52;100850.97;;;7.31;100.00
48824;BME280;34640;53.590;10.054;2023-11-21T03:22:26;100860.44;;;7.30;100.00
48824;BME280;34640;53.590;10.054;2023-11-21T03:25:00;100868.56;;;7.35;100.00
48824;BME280;34640;53.590;10.054;2023-11-21T03:27:34;100868.44;;;7.33;100.00
48824;BME280;34640;53.590;10.054;2023-11-21T03:30:09;100875.19;;;7.31;100.00
48824;BME280;34640;53.590;10.054;2023-11-21T03:32:42;100870.69;;;7.29;100.00
48824;BME280;34640;53.590;10.054;2023-11-21T03:35:15;100877.56;;;7.28;100.00
48824;BME280;34640;53.590;10.054;2023-11-21T03:37:48;100881.06;;;7.29;100.00
48824;BME280;34640;53.590;10.054;2023-11-21T03:40:22;100887.13;;;7.29;100.00
48824;BME280;34640;53.590;10.054;2023-11-21T03:42:55;100892.53;;;7.32;100.00
48824;BME280;34640;53.590;10.054;2023-11-21T03:45:28;100889.16;;;7.33;100.00
48824;BME280;34640;53.590;10.054;2023-11-21T03:48:00;100895.13;;;7.32;100.00
48824;BME280;34640;53.590;10.054;2023-11-21T03:50:34;100898.31;;;7.40;100.00
48824;BME280;34640;53.590;10.054;2023-11-21T03:53:07;100915.28;;;7.36;100.00
48824;BME280;34640;53.590;10.054;2023-11-21T03:55:41;100915.75;;;7.31;100.00
48824;BME280;34640;53.590;10.054;2023-11-21T03:58:14;100917.78;;;7.35;100.00
48824;BME280;34640;53.590;10.054;2023-11-21T04:00:47;100930.72;;;7.35;100.00
48824;BME280;34640;53.590;10.054;2023-11-21T04:03:20;100932.41;;;7.34;100.00
48824;BME280;34640;53.590;10.054;2023-11-21T04:05:53;100932.53;;;7.36;100.00
48824;BME280;34640;53.590;10.054;2023-11-21T04:08:26;100937.72;;;7.36;100.00
48824;BME280;34640;53.590;10.054;2023-11-21T04:11:00;100938.50;;;7.35;100.00
48824;BME280;34640;53.590;10.054;2023-11-21T04:13:33;100941.88;;;7.34;100.00
48824;BME280;34640;53.590;10.054;2023-11-21T04:16:07;100932.31;;;7.33;100.00
48824;BME280;34640;53.590;10.054;2023-11-21T04:18:41;100949.13;;;7.38;100.00
48824;BME280;34640;53.590;10.054;2023-11-21T04:21:14;100955.50;;;7.31;100.00
48824;BME280;34640;53.590;10.054;2023-11-21T04:23:47;100962.25;;;7.29;100.00
48824;BME280;34640;53.590;10.054;2023-11-21T04:26:21;100957.53;;;7.35;100.00
48824;BME280;34640;53.590;10.054;2023-11-21T04:28:54;100965.97;;;7.33;100.00
48824;BME280;34640;53.590;10.054;2023-11-21T04:31:26;100969.25;;;7.30;100.00
48824;BME280;34640;53.590;10.054;2023-11-21T04:33:59;100973.06;;;7.35;100.00
48824;BME280;34640;53.590;10.054;2023-11-21T04:36:32;100968.44;;;7.20;100.00
48824;BME280;34640;53.590;10.054;2023-11-21T04:39:06;100981.41;;;7.31;100.00
48824;BME280;34640;53.590;10.054;2023-11-21T04:41:40;100977.78;;;7.29;100.00
48824;BME280;34640;53.590;10.054;2023-11-21T04:44:14;100977.34;;;7.23;100.00
48824;BME280;34640;53.590;10.054;2023-11-21T04:46:47;100983.53;;;7.25;100.00
48824;BME280;34640;53.590;10.054;2023-11-21T04:49:20;100984.44;;;7.26;100.00
48824;BME280;34640;53.590;10.054;2023-11-21T04:51:53;100980.16;;;7.26;100.00
48824;BME280;34640;53.590;10.054;2023-11-21T04:54:26;100985.44;;;7.28;100.00
48824;BME280;34640;53.590;10.054;2023-11-21T04:57:00;100989.28;;;7.33;100.00
48824;BME280;34640;53.590;10.054;2023-11-21T04:59:33;100990.88;;;7.31;100.00
48824;BME280;34640;53.590;10.054;2023-11-21T05:02:06;101001.91;;;7.28;100.00
48824;BME280;34640;53.590;10.054;2023-11-21T05:04:48;100991.09;;;7.22;100.00
48824;BME280;34640;53.590;10.054;2023-11-21T05:07:20;101002.69;;;7.27;100.00
48824;BME280;34640;53.590;10.054;2023-11-21T05:09:53;101012.38;;;7.30;100.00
48824;BME280;34640;53.590;10.054;2023-11-21T05:12:28;101010.91;;;7.33;100.00
48824;BME280;34640;53.590;10.054;2023-11-21T05:15:01;101015.09;;;7.31;100.00
48824;BME280;34640;53.590;10.054;2023-11-21T05:17:35;101026.00;;;7.27;100.00
48824;BME280;34640;53.590;10.054;2023-11-21T05:20:09;101014.50;;;7.24;100.00
48824;BME280;34640;53.590;10.054;2023-11-21T05:22:42;101022.03;;;7.21;100.00
48824;BME280;34640;53.590;10.054;2023-11-21T05:25:15;101020.47;;;7.23;100.00
48824;BME280;34640;53.590;10.054;2023-11-21T05:27:54;101029.94;;;7.22;100.00
48824;BME280;34640;53.590;10.054;2023-11-21T05:30:27;101030.63;;;7.31;100.00
48824;BME280;34640;53.590;10.054;2023-11-21T05:32:59;101028.69;;;7.29;100.00
48824;BME280;34640;53.590;10.054;2023-11-21T05:35:32;101033.66;;;7.26;100.00
48824;BME280;34640;53.590;10.054;2023-11-21T05:38:05;101037.25;;;7.16;100.00
48824;BME280;34640;53.590;10.054;2023-11-21T05:40:38;101038.72;;;7.24;100.00
48824;BME280;34640;53.590;10.054;2023-11-21T05:43:14;101045.59;;;7.24;100.00
48824;BME280;34640;53.590;10.054;2023-11-21T05:45:47;101046.72;;;7.27;100.00
48824;BME280;34640;53.590;10.054;2023-11-21T05:48:20;101047.63;;;7.28;100.00
48824;BME280;34640;53.590;10.054;2023-11-21T05:50:53;101048.84;;;7.21;100.00
48824;BME280;34640;53.590;10.054;2023-11-21T05:53:26;101061.00;;;7.22;100.00
48824;BME280;34640;53.590;10.054;2023-11-21T05:56:00;101062.81;;;7.23;100.00
48824;BME280;34640;53.590;10.054;2023-11-21T05:58:34;101078.00;;;7.19;100.00
48824;BME280;34640;53.590;10.054;2023-11-21T06:01:07;101083.84;;;7.16;100.00
48824;BME280;34640;53.590;10.054;2023-11-21T06:03:40;101085.66;;;7.17;100.00
48824;BME280;34640;53.590;10.054;2023-11-21T06:06:13;101082.94;;;7.16;100.00
48824;BME280;34640;53.590;10.054;2023-11-21T06:08:46;101088.88;;;7.15;100.00
48824;BME280;34640;53.590;10.054;2023-11-21T06:11:19;101095.91;;;7.16;100.00
48824;BME280;34640;53.590;10.054;2023-11-21T06:13:56;101102.69;;;7.25;100.00
48824;BME280;34640;53.590;10.054;2023-11-21T06:16:29;101105.16;;;7.24;100.00
48824;BME280;34640;53.590;10.054;2023-11-21T06:19:02;101116.41;;;7.24;100.00
48824;BME280;34640;53.590;10.054;2023-11-21T06:21:37;101123.28;;;7.24;100.00
48824;BME280;34640;53.590;10.054;2023-11-21T06:24:11;101120.59;;;7.22;100.00
48824;BME280;34640;53.590;10.054;2023-11-21T06:26:44;101114.38;;;7.20;100.00
48824;BME280;34640;53.590;10.054;2023-11-21T06:29:18;101124.75;;;7.20;100.00
48824;BME280;34640;53.590;10.054;2023-11-21T06:31:51;101129.97;;;7.32;100.00
48824;BME280;34640;53.590;10.054;2023-11-21T06:34:26;101125.56;;;7.31;100.00
48824;BME280;34640;53.590;10.054;2023-11-21T06:37:02;101137.63;;;7.30;100.00
48824;BME280;34640;53.590;10.054;2023-11-21T06:39:35;101139.66;;;7.34;100.00
48824;BME280;34640;53.590;10.054;2023-11-21T06:42:10;101139.25;;;7.40;100.00
48824;BME280;34640;53.590;10.054;2023-11-21T06:44:44;101145.28;;;7.29;100.00
48824;BME280;34640;53.590;10.054;2023-11-21T06:47:17;101149.63;;;7.40;100.00
48824;BME280;34640;53.590;10.054;2023-11-21T06:49:52;101152.09;;;7.39;100.00
48824;BME280;34640;53.590;10.054;2023-11-21T06:52:25;101156.78;;;7.32;100.00
48824;BME280;34640;53.590;10.054;2023-11-21T06:54:58;101166.50;;;7.03;100.00
48824;BME280;34640;53.590;10.054;2023-11-21T06:57:31;101163.72;;;7.22;100.00
48824;BME280;34640;53.590;10.054;2023-11-21T07:00:07;101164.66;;;7.12;100.00
48824;BME280;34640;53.590;10.054;2023-11-21T07:02:41;101179.00;;;7.19;100.00
48824;BME280;34640;53.590;10.054;2023-11-21T07:05:15;101185.34;;;7.22;100.00
48824;BME280;34640;53.590;10.054;2023-11-21T07:07:52;101181.06;;;7.23;100.00
48824;BME280;34640;53.590;10.054;2023-11-21T07:10:26;101184.25;;;7.30;100.00
48824;BME280;34640;53.590;10.054;2023-11-21T07:12:59;101186.84;;;7.30;100.00
48824;BME280;34640;53.590;10.054;2023-11-21T07:15:33;101200.69;;;7.31;100.00
48824;BME280;34640;53.590;10.054;2023-11-21T07:18:06;101202.34;;;7.41;100.00
48824;BME280;34640;53.590;10.054;2023-11-21T07:20:39;101201.56;;;7.42;100.00
48824;BME280;34640;53.590;10.054;2023-11-21T07:23:12;101215.56;;;7.33;100.00
48824;BME280;34640;53.590;10.054;2023-11-21T07:25:47;101219.50;;;7.28;100.00
48824;BME280;34640;53.590;10.054;2023-11-21T07:28:20;101231.28;;;7.25;100.00
48824;BME280;34640;53.590;10.054;2023-11-21T07:30:54;101237.59;;;7.39;100.00
48824;BME280;34640;53.590;10.054;2023-11-21T07:33:27;101237.50;;;7.27;100.00
48824;BME280;34640;53.590;10.054;2023-11-21T07:36:00;101243.94;;;7.32;100.00
48824;BME280;34640;53.590;10.054;2023-11-21T07:38:33;101235.50;;;7.34;100.00
48824;BME280;34640;53.590;10.054;2023-11-21T07:41:06;101240.88;;;7.26;100.00
48824;BME280;34640;53.590;10.054;2023-11-21T07:43:56;101251.31;;;7.38;100.00
48824;BME280;34640;53.590;10.054;2023-11-21T07:46:31;101252.59;;;7.43;100.00
48824;BME280;34640;53.590;10.054;2023-11-21T07:49:04;101250.13;;;7.44;100.00
48824;BME280;34640;53.590;10.054;2023-11-21T07:51:37;101257.53;;;7.40;100.00
48824;BME280;34640;53.590;10.054;2023-11-21T07:54:10;101253.38;;;7.42;100.00
48824;BME280;34640;53.590;10.054;2023-11-21T07:56:44;101255.44;;;7.46;100.00
48824;BME280;34640;53.590;10.054;2023-11-21T07:59:17;101255.91;;;7.52;100.00
48824;BME280;34640;53.590;10.054;2023-11-21T08:01:51;101259.03;;;7.48;100.00
48824;BME280;34640;53.590;10.054;2023-11-21T08:04:24;101260.06;;;7.50;100.00
48824;BME280;34640;53.590;10.054;2023-11-21T08:06:57;101264.47;;;7.51;100.00
48824;BME280;34640;53.590;10.054;2023-11-21T08:09:30;101264.03;;;7.56;100.00
48824;BME280;34640;53.590;10.054;2023-11-21T08:12:05;101275.59;;;7.60;100.00
48824;BME280;34640;53.590;10.054;2023-11-21T08:14:39;101267.41;;;7.55;100.00
48824;BME280;34640;53.590;10.054;2023-11-21T08:17:14;101273.47;;;7.66;100.00
48824;BME280;34640;53.590;10.054;2023-11-21T08:19:49;101278.34;;;7.73;100.00
48824;BME280;34640;53.590;10.054;2023-11-21T08:22:24;101278.19;;;7.82;100.00
48824;BME280;34640;53.590;10.054;2023-11-21T08:24:57;101280.81;;;7.93;100.00
48824;BME280;34640;53.590;10.054;2023-11-21T08:27:30;101279.13;;;7.94;100.00
48824;BME280;34640;53.590;10.054;2023-11-21T08:30:04;101286.84;;;8.04;100.00
48824;BME280;34640;53.590;10.054;2023-11-21T08:32:39;101293.78;;;7.93;100.00
48824;BME280;34640;53.590;10.054;2023-11-21T08:35:12;101285.56;;;7.99;100.00
48824;BME280;34640;53.590;10.054;2023-11-21T08:37:47;101297.50;;;7.97;100.00
48824;BME280;34640;53.590;10.054;2023-11-21T08:40:20;101297.22;;;7.82;100.00
48824;BME280;34640;53.590;10.054;2023-11-21T08:42:53;101310.44;;;7.85;100.00
48824;BME280;34640;53.590;10.054;2023-11-21T08:45:26;101308.75;;;7.86;100.00
48824;BME280;34640;53.590;10.054;2023-11-21T08:48:01;101315.66;;;7.75;100.00
48824;BME280;34640;53.590;10.054;2023-11-21T08:50:37;101321.03;;;7.66;100.00
48824;BME280;34640;53.590;10.054;2023-11-21T08:53:10;101329.88;;;7.80;100.00
48824;BME280;34640;53.590;10.054;2023-11-21T08:55:43;101327.03;;;7.87;100.00
48824;BME280;34640;53.590;10.054;2023-11-21T08:58:17;101334.31;;;7.81;100.00
48824;BME280;34640;53.590;10.054;2023-11-21T09:00:50;101349.25;;;7.74;100.00
48824;BME280;34640;53.590;10.054;2023-11-21T09:03:25;101357.69;;;7.71;100.00
48824;BME280;34640;53.590;10.054;2023-11-21T09:05:58;101353.88;;;7.78;100.00
48824;BME280;34640;53.590;10.054;2023-11-21T09:08:31;101353.38;;;7.82;100.00
48824;BME280;34640;53.590;10.054;2023-11-21T09:11:04;101361.66;;;7.78;100.00
48824;BME280;34640;53.590;10.054;2023-11-21T09:13:37;101362.69;;;7.80;100.00
48824;BME280;34640;53.590;10.054;2023-11-21T09:16:10;101359.94;;;7.88;100.00
48824;BME280;34640;53.590;10.054;2023-11-21T09:18:45;101367.59;;;7.87;100.00
48824;BME280;34640;53.590;10.054;2023-11-21T09:21:18;101383.69;;;7.83;100.00
48824;BME280;34640;53.590;10.054;2023-11-21T09:23:51;101389.66;;;7.82;100.00
48824;BME280;34640;53.590;10.054;2023-11-21T09:26:25;101387.47;;;7.76;100.00
48824;BME280;34640;53.590;10.054;2023-11-21T09:28:58;101390.19;;;7.78;100.00
48824;BME280;34640;53.590;10.054;2023-11-21T09:31:31;101394.34;;;7.76;100.00
48824;BME280;34640;53.590;10.054;2023-11-21T09:34:06;101397.97;;;7.78;100.00
48824;BME280;34640;53.590;10.054;2023-11-21T09:36:39;101399.75;;;7.79;100.00
48824;BME280;34640;53.590;10.054;2023-11-21T09:39:12;101402.88;;;7.85;100.00
48824;BME280;34640;53.590;10.054;2023-11-21T09:41:50;101405.94;;;7.91;100.00
48824;BME280;34640;53.590;10.054;2023-11-21T09:44:32;101416.56;;;7.94;100.00
48824;BME280;34640;53.590;10.054;2023-11-21T09:47:09;101414.50;;;7.90;100.00
48824;BME280;34640;53.590;10.054;2023-11-21T09:49:47;101420.31;;;7.97;100.00
48824;BME280;34640;53.590;10.054;2023-11-21T09:52:24;101431.19;;;8.04;100.00
48824;BME280;34640;53.590;10.054;2023-11-21T09:54:58;101422.75;;;8.06;100.00
48824;BME280;34640;53.590;10.054;2023-11-21T09:57:32;101431.22;;;7.93;100.00
48824;BME280;34640;53.590;10.054;2023-11-21T10:00:07;101435.31;;;8.02;100.00
48824;BME280;34640;53.590;10.054;2023-11-21T10:02:44;101440.63;;;8.13;100.00
48824;BME280;34640;53.590;10.054;2023-11-21T10:05:20;101437.53;;;8.07;100.00
48824;BME280;34640;53.590;10.054;2023-11-21T10:07:57;101440.38;;;8.10;100.00
48824;BME280;34640;53.590;10.054;2023-11-21T10:10:32;101449.91;;;8.21;100.00
48824;BME280;34640;53.590;10.054;2023-11-21T10:13:06;101449.13;;;8.22;100.00
48824;BME280;34640;53.590;10.054;2023-11-21T10:15:42;101439.28;;;8.18;100.00
48824;BME280;34640;53.590;10.054;2023-11-21T10:18:20;101438.84;;;8.24;100.00
48824;BME280;34640;53.590;10.054;2023-11-21T10:20:56;101440.91;;;8.38;100.00
48824;BME280;34640;53.590;10.054;2023-11-21T10:23:30;101441.06;;;8.30;100.00
48824;BME280;34640;53.590;10.054;2023-11-21T10:26:06;101440.75;;;8.47;100.00
48824;BME280;34640;53.590;10.054;2023-11-21T10:29:02;101445.19;;;8.38;100.00
48824;BME280;34640;53.590;10.054;2023-11-21T10:31:37;101445.72;;;8.34;100.00
48824;BME280;34640;53.590;10.054;2023-11-21T10:34:14;101454.03;;;8.30;100.00
48824;BME280;34640;53.590;10.054;2023-11-21T10:36:50;101459.13;;;8.18;100.00
48824;BME280;34640;53.590;10.054;2023-11-21T10:39:24;101465.31;;;8.30;100.00
48824;BME280;34640;53.590;10.054;2023-11-21T10:42:02;101465.03;;;8.37;100.00
48824;BME280;34640;53.590;10.054;2023-11-21T10:44:36;101468.94;;;8.32;100.00
48824;BME280;34640;53.590;10.054;2023-11-21T10:47:09;101469.88;;;8.22;100.00
48824;BME280;34640;53.590;10.054;2023-11-21T10:49:44;101476.25;;;8.26;100.00
48824;BME280;34640;53.590;10.054;2023-11-21T10:52:20;101474.03;;;8.20;100.00
48824;BME280;34640;53.590;10.054;2023-11-21T10:54:54;101476.25;;;8.16;100.00
48824;BME280;34640;53.590;10.054;2023-11-21T10:57:29;101477.63;;;8.01;100.00
48824;BME280;34640;53.590;10.054;2023-11-21T11:00:04;101474.78;;;7.97;100.00
48824;BME280;34640;53.590;10.054;2023-11-21T11:02:37;101470.53;;;7.88;100.00
48824;BME280;34640;53.590;10.054;2023-11-21T11:05:15;101479.56;;;8.03;100.00
48824;BME280;34640;53.590;10.054;2023-11-21T11:07:58;101476.88;;;7.91;100.00
48824;BME280;34640;53.590;10.054;2023-11-21T11:10:33;101483.34;;;7.96;100.00
48824;BME280;34640;53.590;10.054;2023-11-21T11:13:06;101485.31;;;7.89;100.00
48824;BME280;34640;53.590;10.054;2023-11-21T11:15:40;101489.06;;;7.92;100.00
48824;BME280;34640;53.590;10.054;2023-11-21T11:18:15;101491.41;;;7.89;100.00
48824;BME280;34640;53.590;10.054;2023-11-21T11:20:51;101490.75;;;7.92;100.00
48824;BME280;34640;53.590;10.054;2023-11-21T11:23:40;101491.66;;;7.92;100.00
48824;BME280;34640;53.590;10.054;2023-11-21T11:26:31;101489.78;;;8.02;100.00
48824;BME280;34640;53.590;10.054;2023-11-21T11:29:12;101472.72;;;7.93;100.00
48824;BME280;34640;53.590;10.054;2023-11-21T11:31:55;101483.69;;;8.01;100.00
48824;BME280;34640;53.590;10.054;2023-11-21T11:34:35;101486.03;;;8.08;100.00
48824;BME280;34640;53.590;10.054;2023-11-21T11:37:10;101481.91;;;8.00;100.00
48824;BME280;34640;53.590;10.054;2023-11-21T11:39:46;101492.91;;;8.08;100.00
48824;BME280;34640;53.590;10.054;2023-11-21T11:42:19;101499.25;;;8.11;100.00
48824;BME280;34640;53.590;10.054;2023-11-21T11:44:55;101489.66;;;8.10;100.00
48824;BME280;34640;53.590;10.054;2023-11-21T11:47:31;101491.75;;;8.04;100.00
48824;BME280;34640;53.590;10.054;2023-11-21T11:50:07;101493.56;;;8.05;100.00
48824;BME280;34640;53.590;10.054;2023-11-21T11:52:46;101493.03;;;8.09;100.00
48824;BME280;34640;53.590;10.054;2023-11-21T11:55:23;101492.25;;;8.00;100.00
48824;BME280;34640;53.590;10.054;2023-11-21T11:57:58;101493.44;;;8.04;100.00
48824;BME280;34640;53.590;10.054;2023-11-21T12:00:34;101495.38;;;8.06;100.00
48824;BME280;34640;53.590;10.054;2023-11-21T12:03:09;101497.72;;;8.03;100.00
48824;BME280;34640;53.590;10.054;2023-11-21T12:05:42;101495.03;;;7.91;100.00
48824;BME280;34640;53.590;10.054;2023-11-21T12:08:17;101496.31;;;7.96;100.00
48824;BME280;34640;53.590;10.054;2023-11-21T12:10:51;101507.72;;;7.98;100.00
48824;BME280;34640;53.590;10.054;2023-11-21T12:13:28;101517.59;;;7.92;100.00
48824;BME280;34640;53.590;10.054;2023-11-21T12:16:01;101525.25;;;7.91;100.00
48824;BME280;34640;53.590;10.054;2023-11-21T12:18:34;101524.75;;;7.85;100.00
48824;BME280;34640;53.590;10.054;2023-11-21T12:21:07;101522.94;;;7.84;100.00
48824;BME280;34640;53.590;10.054;2023-11-21T12:23:41;101543.69;;;7.74;100.00
48824;BME280;34640;53.590;10.054;2023-11-21T12:26:15;101545.50;;;7.75;100.00
48824;BME280;34640;53.590;10.054;2023-11-21T12:28:52;101552.09;;;7.71;100.00
48824;BME280;34640;53.590;10.054;2023-11-21T12:31:28;101554.44;;;7.58;100.00
48824;BME280;34640;53.590;10.054;2023-11-21T12:34:03;101561.19;;;7.56;100.00
48824;BME280;34640;53.590;10.054;2023-11-21T12:36:36;101569.59;;;7.53;100.00
48824;BME280;34640;53.590;10.054;2023-11-21T12:39:11;101573.88;;;7.53;100.00
48824;BME280;34640;53.590;10.054;2023-11-21T12:41:47;101574.81;;;7.43;100.00
48824;BME280;34640;53.590;10.054;2023-11-21T12:44:23;101570.13;;;7.49;100.00
48824;BME280;34640;53.590;10.054;2023-11-21T12:46:56;101579.72;;;7.50;100.00
48824;BME280;34640;53.590;10.054;2023-11-21T12:49:29;101577.25;;;7.52;100.00
48824;BME280;34640;53.590;10.054;2023-11-21T12:52:04;101579.47;;;7.47;100.00
48824;BME280;34640;53.590;10.054;2023-11-21T12:54:39;101578.94;;;7.41;100.00
48824;BME280;34640;53.590;10.054;2023-11-21T12:57:13;101591.50;;;7.36;100.00
48824;BME280;34640;53.590;10.054;2023-11-21T12:59:48;101594.25;;;7.38;100.00
48824;BME280;34640;53.590;10.054;2023-11-21T13:02:26;101609.16;;;7.41;100.00
48824;BME280;34640;53.590;10.054;2023-11-21T13:05:00;101600.16;;;7.37;100.00
48824;BME280;34640;53.590;10.054;2023-11-21T13:07:41;101599.53;;;7.29;100.00
48824;BME280;34640;53.590;10.054;2023-11-21T13:10:18;101606.00;;;7.34;100.00
48824;BME280;34640;53.590;10.054;2023-11-21T13:12:57;101611.06;;;7.33;100.00
48824;BME280;34640;53.590;10.054;2023-11-21T13:15:32;101610.41;;;7.25;100.00